sensor_id;sensor_type;location;lat;lon;timestamp;P1;durP1;ratioP1;P2;durP2;ratioP2
769;SDS011;368;48.698;9.116;2023-09-08T00:00:32;9.20;;;8.30;;
769;SDS011;368;48.698;9.116;2023-09-08T00:03:00;9.73;;;8.43;;
769;SDS011;368;48.698;9.116;2023-09-08T00:05:27;8.27;;;7.57;;
769;SDS011;368;48.698;9.116;2023-09-08T00:07:54;7.40;;;6.80;;
769;SDS011;368;48.698;9.116;2023-09-08T00:10:21;8.20;;;7.40;;
769;SDS011;368;48.698;9.116;2023-09-08T00:12:49;7.93;;;7.23;;
769;SDS011;368;48.698;9.116;2023-09-08T00:15:15;9.60;;;7.90;;
769;SDS011;368;48.698;9.116;2023-09-08T00:17:42;9.40;;;8.50;;
769;SDS011;368;48.698;9.116;2023-09-08T00:20:12;12.90;;;8.20;;
769;SDS011;368;48.698;9.116;2023-09-08T00:22:40;9.43;;;8.60;;
769;SDS011;368;48.698;9.116;2023-09-08T00:25:07;8.30;;;7.60;;
769;SDS011;368;48.698;9.116;2023-09-08T00:27:34;9.70;;;7.80;;
769;SDS011;368;48.698;9.116;2023-09-08T00:30:02;9.00;;;8.10;;
769;SDS011;368;48.698;9.116;2023-09-08T00:32:29;8.83;;;8.03;;
769;SDS011;368;48.698;9.116;2023-09-08T00:34:56;8.00;;;7.30;;
769;SDS011;368;48.698;9.116;2023-09-08T00:37:23;9.03;;;7.93;;
769;SDS011;368;48.698;9.116;2023-09-08T00:39:50;8.80;;;8.00;;
769;SDS011;368;48.698;9.116;2023-09-08T00:42:17;9.20;;;8.30;;
769;SDS011;368;48.698;9.116;2023-09-08T00:44:43;8.50;;;7.80;;
769;SDS011;368;48.698;9.116;2023-09-08T00:47:11;9.33;;;8.43;;
769;SDS011;368;48.698;9.116;2023-09-08T00:49:38;7.97;;;7.20;;
769;SDS011;368;48.698;9.116;2023-09-08T00:52:05;8.10;;;7.40;;
769;SDS011;368;48.698;9.116;2023-09-08T00:54:32;8.60;;;7.70;;
769;SDS011;368;48.698;9.116;2023-09-08T00:56:59;8.60;;;7.77;;
769;SDS011;368;48.698;9.116;2023-09-08T00:59:28;8.37;;;7.63;;
769;SDS011;368;48.698;9.116;2023-09-08T01:01:57;9.00;;;8.10;;
769;SDS011;368;48.698;9.116;2023-09-08T01:04:25;8.50;;;7.67;;
769;SDS011;368;48.698;9.116;2023-09-08T01:06:52;9.20;;;8.30;;
769;SDS011;368;48.698;9.116;2023-09-08T01:09:19;8.83;;;8.03;;
769;SDS011;368;48.698;9.116;2023-09-08T01:11:46;8.07;;;7.27;;
769;SDS011;368;48.698;9.116;2023-09-08T01:14:13;8.93;;;8.03;;
769;SDS011;368;48.698;9.116;2023-09-08T01:16:43;8.53;;;7.73;;
769;SDS011;368;48.698;9.116;2023-09-08T01:19:10;8.50;;;7.70;;
769;SDS011;368;48.698;9.116;2023-09-08T01:24:57;9.10;;;8.20;;
769;SDS011;368;48.698;9.116;2023-09-08T01:27:45;8.10;;;7.40;;
769;SDS011;368;48.698;9.116;2023-09-08T01:30:15;8.80;;;7.87;;
769;SDS011;368;48.698;9.116;2023-09-08T01:32:42;8.53;;;7.73;;
769;SDS011;368;48.698;9.116;2023-09-08T01:35:10;9.60;;;8.13;;
769;SDS011;368;48.698;9.116;2023-09-08T01:37:39;9.03;;;7.97;;
769;SDS011;368;48.698;9.116;2023-09-08T01:40:08;7.93;;;7.23;;
769;SDS011;368;48.698;9.116;2023-09-08T01:42:36;7.87;;;7.10;;
769;SDS011;368;48.698;9.116;2023-09-08T01:45:03;7.87;;;7.10;;
769;SDS011;368;48.698;9.116;2023-09-08T01:47:31;8.70;;;7.40;;
769;SDS011;368;48.698;9.116;2023-09-08T01:49:57;8.30;;;7.50;;
769;SDS011;368;48.698;9.116;2023-09-08T01:52:24;7.63;;;6.87;;
769;SDS011;368;48.698;9.116;2023-09-08T01:54:51;7.97;;;7.17;;
769;SDS011;368;48.698;9.116;2023-09-08T01:57:19;8.90;;;7.87;;
769;SDS011;368;48.698;9.116;2023-09-08T01:59:46;8.60;;;7.80;;
769;SDS011;368;48.698;9.116;2023-09-08T02:02:13;8.40;;;7.60;;
769;SDS011;368;48.698;9.116;2023-09-08T02:04:40;9.40;;;7.80;;
769;SDS011;368;48.698;9.116;2023-09-08T02:07:07;7.83;;;7.13;;
769;SDS011;368;48.698;9.116;2023-09-08T02:09:34;7.57;;;6.87;;
769;SDS011;368;48.698;9.116;2023-09-08T02:12:01;9.53;;;7.43;;
769;SDS011;368;48.698;9.116;2023-09-08T02:14:30;8.67;;;7.77;;
769;SDS011;368;48.698;9.116;2023-09-08T02:16:57;10.43;;;8.60;;
769;SDS011;368;48.698;9.116;2023-09-08T02:19:24;8.43;;;7.53;;
769;SDS011;368;48.698;9.116;2023-09-08T02:21:50;7.73;;;7.03;;
769;SDS011;368;48.698;9.116;2023-09-08T02:24:18;10.37;;;7.67;;
769;SDS011;368;48.698;9.116;2023-09-08T02:26:45;7.63;;;6.93;;
769;SDS011;368;48.698;9.116;2023-09-08T02:29:11;8.77;;;7.60;;
769;SDS011;368;48.698;9.116;2023-09-08T02:31:39;7.77;;;7.07;;
769;SDS011;368;48.698;9.116;2023-09-08T02:34:06;7.90;;;7.20;;
769;SDS011;368;48.698;9.116;2023-09-08T02:36:33;7.37;;;6.70;;
769;SDS011;368;48.698;9.116;2023-09-08T02:39:00;8.13;;;7.33;;
769;SDS011;368;48.698;9.116;2023-09-08T02:41:26;8.63;;;7.70;;
769;SDS011;368;48.698;9.116;2023-09-08T02:43:53;8.20;;;7.50;;
769;SDS011;368;48.698;9.116;2023-09-08T02:46:20;8.90;;;7.93;;
769;SDS011;368;48.698;9.116;2023-09-08T02:48:48;7.63;;;6.93;;
769;SDS011;368;48.698;9.116;2023-09-08T02:51:15;8.37;;;7.57;;
769;SDS011;368;48.698;9.116;2023-09-08T02:53:41;8.30;;;7.40;;
769;SDS011;368;48.698;9.116;2023-09-08T02:56:08;8.07;;;7.37;;
769;SDS011;368;48.698;9.116;2023-09-08T02:58:35;8.10;;;7.27;;
769;SDS011;368;48.698;9.116;2023-09-08T03:01:12;7.77;;;7.00;;
769;SDS011;368;48.698;9.116;2023-09-08T03:03:39;8.73;;;7.93;;
769;SDS011;368;48.698;9.116;2023-09-08T03:06:08;9.40;;;8.50;;
769;SDS011;368;48.698;9.116;2023-09-08T03:08:37;7.90;;;7.10;;
769;SDS011;368;48.698;9.116;2023-09-08T03:11:04;7.77;;;7.07;;
769;SDS011;368;48.698;9.116;2023-09-08T03:13:32;9.07;;;8.10;;
769;SDS011;368;48.698;9.116;2023-09-08T03:16:03;8.23;;;7.43;;
769;SDS011;368;48.698;9.116;2023-09-08T03:18:31;8.03;;;6.90;;
769;SDS011;368;48.698;9.116;2023-09-08T03:20:58;6.97;;;6.30;;
769;SDS011;368;48.698;9.116;2023-09-08T03:23:29;7.50;;;6.70;;
769;SDS011;368;48.698;9.116;2023-09-08T03:25:56;9.20;;;8.30;;
769;SDS011;368;48.698;9.116;2023-09-08T03:28:23;8.73;;;7.93;;
769;SDS011;368;48.698;9.116;2023-09-08T03:30:50;8.33;;;7.63;;
769;SDS011;368;48.698;9.116;2023-09-08T03:33:16;8.13;;;7.43;;
769;SDS011;368;48.698;9.116;2023-09-08T03:35:43;9.13;;;8.33;;
769;SDS011;368;48.698;9.116;2023-09-08T03:38:10;8.37;;;7.57;;
769;SDS011;368;48.698;9.116;2023-09-08T03:40:38;8.50;;;7.77;;
769;SDS011;368;48.698;9.116;2023-09-08T03:43:05;8.33;;;7.40;;
769;SDS011;368;48.698;9.116;2023-09-08T03:45:31;8.50;;;7.47;;
769;SDS011;368;48.698;9.116;2023-09-08T03:47:58;8.37;;;7.57;;
769;SDS011;368;48.698;9.116;2023-09-08T03:50:25;8.37;;;7.47;;
769;SDS011;368;48.698;9.116;2023-09-08T03:52:52;9.00;;;8.10;;
769;SDS011;368;48.698;9.116;2023-09-08T03:55:19;8.97;;;8.07;;
769;SDS011;368;48.698;9.116;2023-09-08T03:57:47;9.40;;;8.50;;
769;SDS011;368;48.698;9.116;2023-09-08T04:00:14;8.87;;;8.07;;
769;SDS011;368;48.698;9.116;2023-09-08T04:02:47;8.53;;;7.73;;
769;SDS011;368;48.698;9.116;2023-09-08T04:05:14;8.20;;;7.50;;
769;SDS011;368;48.698;9.116;2023-09-08T04:07:42;8.77;;;7.83;;
769;SDS011;368;48.698;9.116;2023-09-08T04:10:09;8.00;;;7.20;;
769;SDS011;368;48.698;9.116;2023-09-08T04:12:36;8.43;;;7.73;;
769;SDS011;368;48.698;9.116;2023-09-08T04:15:04;8.73;;;7.60;;
769;SDS011;368;48.698;9.116;2023-09-08T04:17:32;8.93;;;7.90;;
769;SDS011;368;48.698;9.116;2023-09-08T04:19:58;8.30;;;7.57;;
769;SDS011;368;48.698;9.116;2023-09-08T04:22:25;8.87;;;8.00;;
769;SDS011;368;48.698;9.116;2023-09-08T04:24:52;8.80;;;7.93;;
769;SDS011;368;48.698;9.116;2023-09-08T04:27:20;8.97;;;8.07;;
769;SDS011;368;48.698;9.116;2023-09-08T04:29:47;7.90;;;7.10;;
769;SDS011;368;48.698;9.116;2023-09-08T04:32:15;8.90;;;8.00;;
769;SDS011;368;48.698;9.116;2023-09-08T04:34:42;8.03;;;7.30;;
769;SDS011;368;48.698;9.116;2023-09-08T04:37:09;8.93;;;8.07;;
769;SDS011;368;48.698;9.116;2023-09-08T04:39:36;8.30;;;7.40;;
769;SDS011;368;48.698;9.116;2023-09-08T04:42:03;8.33;;;7.53;;
769;SDS011;368;48.698;9.116;2023-09-08T04:44:30;9.80;;;8.90;;
769;SDS011;368;48.698;9.116;2023-09-08T04:46:57;8.20;;;7.50;;
769;SDS011;368;48.698;9.116;2023-09-08T04:49:25;9.60;;;7.63;;
769;SDS011;368;48.698;9.116;2023-09-08T04:51:53;8.40;;;7.60;;
769;SDS011;368;48.698;9.116;2023-09-08T04:54:20;9.07;;;8.17;;
769;SDS011;368;48.698;9.116;2023-09-08T04:56:47;8.60;;;7.80;;
769;SDS011;368;48.698;9.116;2023-09-08T04:59:14;7.60;;;6.90;;
769;SDS011;368;48.698;9.116;2023-09-08T05:01:41;8.53;;;7.73;;
769;SDS011;368;48.698;9.116;2023-09-08T05:04:08;8.40;;;7.70;;
769;SDS011;368;48.698;9.116;2023-09-08T05:06:37;8.10;;;7.17;;
769;SDS011;368;48.698;9.116;2023-09-08T05:09:03;9.33;;;8.53;;
769;SDS011;368;48.698;9.116;2023-09-08T05:11:31;9.10;;;7.60;;
769;SDS011;368;48.698;9.116;2023-09-08T05:13:58;10.33;;;7.53;;
769;SDS011;368;48.698;9.116;2023-09-08T05:16:25;8.77;;;7.67;;
769;SDS011;368;48.698;9.116;2023-09-08T05:19:02;8.40;;;7.60;;
769;SDS011;368;48.698;9.116;2023-09-08T05:21:28;9.80;;;8.77;;
769;SDS011;368;48.698;9.116;2023-09-08T05:23:58;10.90;;;8.23;;
769;SDS011;368;48.698;9.116;2023-09-08T05:26:25;11.20;;;7.47;;
769;SDS011;368;48.698;9.116;2023-09-08T05:28:52;10.20;;;8.50;;
769;SDS011;368;48.698;9.116;2023-09-08T05:31:19;10.63;;;8.57;;
769;SDS011;368;48.698;9.116;2023-09-08T05:33:45;11.53;;;9.30;;
769;SDS011;368;48.698;9.116;2023-09-08T05:36:12;10.80;;;8.97;;
769;SDS011;368;48.698;9.116;2023-09-08T05:38:39;10.43;;;9.10;;
769;SDS011;368;48.698;9.116;2023-09-08T05:41:07;11.97;;;10.63;;
769;SDS011;368;48.698;9.116;2023-09-08T05:43:34;10.50;;;8.53;;
769;SDS011;368;48.698;9.116;2023-09-08T05:46:01;9.03;;;8.23;;
769;SDS011;368;48.698;9.116;2023-09-08T05:48:29;8.90;;;8.00;;
769;SDS011;368;48.698;9.116;2023-09-08T05:50:55;7.80;;;7.00;;
769;SDS011;368;48.698;9.116;2023-09-08T05:53:22;8.53;;;7.73;;
769;SDS011;368;48.698;9.116;2023-09-08T05:55:49;9.70;;;7.70;;
769;SDS011;368;48.698;9.116;2023-09-08T05:58:17;8.83;;;7.80;;
769;SDS011;368;48.698;9.116;2023-09-08T06:00:44;8.60;;;7.80;;
769;SDS011;368;48.698;9.116;2023-09-08T06:03:11;7.07;;;6.47;;
769;SDS011;368;48.698;9.116;2023-09-08T06:05:37;7.57;;;6.80;;
769;SDS011;368;48.698;9.116;2023-09-08T06:08:04;7.93;;;7.23;;
769;SDS011;368;48.698;9.116;2023-09-08T06:10:31;6.53;;;5.93;;
769;SDS011;368;48.698;9.116;2023-09-08T06:12:58;7.93;;;7.23;;
769;SDS011;368;48.698;9.116;2023-09-08T06:15:26;8.27;;;6.43;;
769;SDS011;368;48.698;9.116;2023-09-08T06:17:53;8.47;;;7.20;;
769;SDS011;368;48.698;9.116;2023-09-08T06:20:19;8.40;;;6.93;;
769;SDS011;368;48.698;9.116;2023-09-08T06:22:46;8.87;;;7.73;;
769;SDS011;368;48.698;9.116;2023-09-08T06:25:13;8.60;;;7.30;;
769;SDS011;368;48.698;9.116;2023-09-08T06:27:41;10.43;;;8.07;;
769;SDS011;368;48.698;9.116;2023-09-08T06:30:08;8.40;;;7.60;;
769;SDS011;368;48.698;9.116;2023-09-08T06:32:37;8.70;;;7.80;;
769;SDS011;368;48.698;9.116;2023-09-08T06:35:04;11.10;;;6.67;;
769;SDS011;368;48.698;9.116;2023-09-08T06:37:34;10.87;;;8.07;;
769;SDS011;368;48.698;9.116;2023-09-08T06:40:03;8.60;;;7.13;;
769;SDS011;368;48.698;9.116;2023-09-08T06:42:30;11.63;;;9.33;;
769;SDS011;368;48.698;9.116;2023-09-08T06:44:58;12.10;;;8.60;;
769;SDS011;368;48.698;9.116;2023-09-08T06:47:25;9.27;;;7.60;;
769;SDS011;368;48.698;9.116;2023-09-08T06:49:53;8.60;;;7.77;;
769;SDS011;368;48.698;9.116;2023-09-08T06:52:20;11.00;;;7.30;;
769;SDS011;368;48.698;9.116;2023-09-08T06:54:47;7.97;;;7.27;;
769;SDS011;368;48.698;9.116;2023-09-08T06:57:13;8.87;;;8.00;;
769;SDS011;368;48.698;9.116;2023-09-08T06:59:41;8.30;;;7.60;;
769;SDS011;368;48.698;9.116;2023-09-08T07:02:08;8.47;;;7.77;;
769;SDS011;368;48.698;9.116;2023-09-08T07:04:34;8.50;;;7.70;;
769;SDS011;368;48.698;9.116;2023-09-08T07:07:03;9.43;;;8.60;;
769;SDS011;368;48.698;9.116;2023-09-08T07:09:32;8.37;;;7.57;;
769;SDS011;368;48.698;9.116;2023-09-08T07:11:59;8.20;;;7.43;;
769;SDS011;368;48.698;9.116;2023-09-08T07:14:26;8.10;;;7.40;;
769;SDS011;368;48.698;9.116;2023-09-08T07:16:53;10.13;;;8.43;;
769;SDS011;368;48.698;9.116;2023-09-08T07:19:20;9.00;;;7.83;;
769;SDS011;368;48.698;9.116;2023-09-08T07:21:47;7.67;;;6.90;;
769;SDS011;368;48.698;9.116;2023-09-08T07:24:15;9.10;;;7.10;;
769;SDS011;368;48.698;9.116;2023-09-08T07:26:41;6.90;;;6.30;;
769;SDS011;368;48.698;9.116;2023-09-08T07:29:08;7.30;;;6.70;;
769;SDS011;368;48.698;9.116;2023-09-08T07:31:35;8.10;;;7.40;;
769;SDS011;368;48.698;9.116;2023-09-08T07:34:03;7.23;;;6.53;;
769;SDS011;368;48.698;9.116;2023-09-08T07:36:30;7.77;;;6.97;;
769;SDS011;368;48.698;9.116;2023-09-08T07:38:56;7.97;;;7.23;;
769;SDS011;368;48.698;9.116;2023-09-08T07:41:25;7.30;;;6.60;;
769;SDS011;368;48.698;9.116;2023-09-08T07:43:51;7.90;;;7.17;;
769;SDS011;368;48.698;9.116;2023-09-08T07:46:18;8.10;;;7.07;;
769;SDS011;368;48.698;9.116;2023-09-08T07:48:45;7.87;;;7.20;;
769;SDS011;368;48.698;9.116;2023-09-08T07:51:12;7.77;;;7.00;;
769;SDS011;368;48.698;9.116;2023-09-08T07:53:38;7.10;;;6.60;;
769;SDS011;368;48.698;9.116;2023-09-08T07:56:05;7.47;;;6.77;;
769;SDS011;368;48.698;9.116;2023-09-08T07:58:33;6.80;;;6.30;;
769;SDS011;368;48.698;9.116;2023-09-08T08:01:00;7.63;;;6.93;;
769;SDS011;368;48.698;9.116;2023-09-08T08:03:27;7.77;;;7.17;;
769;SDS011;368;48.698;9.116;2023-09-08T08:05:53;7.37;;;6.67;;
769;SDS011;368;48.698;9.116;2023-09-08T08:08:22;6.90;;;6.33;;
769;SDS011;368;48.698;9.116;2023-09-08T08:10:49;7.30;;;6.60;;
769;SDS011;368;48.698;9.116;2023-09-08T08:13:15;6.43;;;5.93;;
769;SDS011;368;48.698;9.116;2023-09-08T08:15:44;7.10;;;6.40;;
769;SDS011;368;48.698;9.116;2023-09-08T08:18:12;7.53;;;6.83;;
769;SDS011;368;48.698;9.116;2023-09-08T08:20:39;7.60;;;7.00;;
769;SDS011;368;48.698;9.116;2023-09-08T08:23:06;6.90;;;6.33;;
769;SDS011;368;48.698;9.116;2023-09-08T08:25:33;7.43;;;6.83;;
769;SDS011;368;48.698;9.116;2023-09-08T08:28:00;7.17;;;6.53;;
769;SDS011;368;48.698;9.116;2023-09-08T08:30:27;6.93;;;6.23;;
769;SDS011;368;48.698;9.116;2023-09-08T08:32:56;6.50;;;5.80;;
769;SDS011;368;48.698;9.116;2023-09-08T08:35:23;8.47;;;7.57;;
769;SDS011;368;48.698;9.116;2023-09-08T08:37:49;15.90;;;9.50;;
769;SDS011;368;48.698;9.116;2023-09-08T08:40:16;18.10;;;10.43;;
769;SDS011;368;48.698;9.116;2023-09-08T08:42:43;7.00;;;6.47;;
769;SDS011;368;48.698;9.116;2023-09-08T08:45:10;6.77;;;6.17;;
769;SDS011;368;48.698;9.116;2023-09-08T08:47:37;7.23;;;6.53;;
769;SDS011;368;48.698;9.116;2023-09-08T08:50:07;7.30;;;6.70;;
769;SDS011;368;48.698;9.116;2023-09-08T08:52:36;6.33;;;5.73;;
769;SDS011;368;48.698;9.116;2023-09-08T08:55:05;6.40;;;5.80;;
769;SDS011;368;48.698;9.116;2023-09-08T08:57:33;6.30;;;5.80;;
769;SDS011;368;48.698;9.116;2023-09-08T09:00:02;7.17;;;6.57;;
769;SDS011;368;48.698;9.116;2023-09-08T09:02:32;6.20;;;5.70;;
769;SDS011;368;48.698;9.116;2023-09-08T09:04:59;7.13;;;6.63;;
769;SDS011;368;48.698;9.116;2023-09-08T09:07:28;6.90;;;6.30;;
769;SDS011;368;48.698;9.116;2023-09-08T09:09:55;6.30;;;5.80;;
769;SDS011;368;48.698;9.116;2023-09-08T09:12:22;6.67;;;6.20;;
769;SDS011;368;48.698;9.116;2023-09-08T09:14:52;8.50;;;6.07;;
769;SDS011;368;48.698;9.116;2023-09-08T09:17:19;7.10;;;6.20;;
769;SDS011;368;48.698;9.116;2023-09-08T09:19:46;5.60;;;5.30;;
769;SDS011;368;48.698;9.116;2023-09-08T09:22:12;6.60;;;6.10;;
769;SDS011;368;48.698;9.116;2023-09-08T09:24:41;6.47;;;5.90;;
769;SDS011;368;48.698;9.116;2023-09-08T09:27:09;6.37;;;5.87;;
769;SDS011;368;48.698;9.116;2023-09-08T09:29:43;6.43;;;6.00;;
769;SDS011;368;48.698;9.116;2023-09-08T09:32:11;6.43;;;5.80;;
769;SDS011;368;48.698;9.116;2023-09-08T09:34:47;6.23;;;5.73;;
769;SDS011;368;48.698;9.116;2023-09-08T09:37:14;6.27;;;5.30;;
769;SDS011;368;48.698;9.116;2023-09-08T09:39:45;6.23;;;5.70;;
769;SDS011;368;48.698;9.116;2023-09-08T09:42:15;6.50;;;5.90;;
769;SDS011;368;48.698;9.116;2023-09-08T09:44:42;4.83;;;4.53;;
769;SDS011;368;48.698;9.116;2023-09-08T09:47:09;5.97;;;5.57;;
769;SDS011;368;48.698;9.116;2023-09-08T09:49:41;5.47;;;5.00;;
769;SDS011;368;48.698;9.116;2023-09-08T09:52:08;5.23;;;4.83;;
769;SDS011;368;48.698;9.116;2023-09-08T09:54:38;6.07;;;5.57;;
769;SDS011;368;48.698;9.116;2023-09-08T09:57:06;6.10;;;5.47;;
769;SDS011;368;48.698;9.116;2023-09-08T09:59:35;6.03;;;5.53;;
769;SDS011;368;48.698;9.116;2023-09-08T10:02:02;5.27;;;4.83;;
769;SDS011;368;48.698;9.116;2023-09-08T10:04:29;5.30;;;5.00;;
769;SDS011;368;48.698;9.116;2023-09-08T10:06:57;5.70;;;5.30;;
769;SDS011;368;48.698;9.116;2023-09-08T10:09:24;5.60;;;5.20;;
769;SDS011;368;48.698;9.116;2023-09-08T10:11:50;5.47;;;4.97;;
769;SDS011;368;48.698;9.116;2023-09-08T10:14:24;6.50;;;6.00;;
769;SDS011;368;48.698;9.116;2023-09-08T10:16:55;6.87;;;6.27;;
769;SDS011;368;48.698;9.116;2023-09-08T10:19:25;5.70;;;5.20;;
769;SDS011;368;48.698;9.116;2023-09-08T10:21:54;6.00;;;5.60;;
769;SDS011;368;48.698;9.116;2023-09-08T10:24:26;5.30;;;4.90;;
769;SDS011;368;48.698;9.116;2023-09-08T10:26:56;6.33;;;5.83;;
769;SDS011;368;48.698;9.116;2023-09-08T10:29:30;5.40;;;5.00;;
769;SDS011;368;48.698;9.116;2023-09-08T10:31:58;5.33;;;4.90;;
769;SDS011;368;48.698;9.116;2023-09-08T10:34:26;5.60;;;5.10;;
769;SDS011;368;48.698;9.116;2023-09-08T10:36:54;6.33;;;5.73;;
769;SDS011;368;48.698;9.116;2023-09-08T10:39:31;5.90;;;5.50;;
769;SDS011;368;48.698;9.116;2023-09-08T10:44:55;5.77;;;5.20;;
769;SDS011;368;48.698;9.116;2023-09-08T10:47:23;5.87;;;5.47;;
769;SDS011;368;48.698;9.116;2023-09-08T10:49:50;6.10;;;5.53;;
769;SDS011;368;48.698;9.116;2023-09-08T10:52:20;6.10;;;5.43;;
769;SDS011;368;48.698;9.116;2023-09-08T10:54:49;6.30;;;5.80;;
769;SDS011;368;48.698;9.116;2023-09-08T10:57:17;6.10;;;5.60;;
769;SDS011;368;48.698;9.116;2023-09-08T10:59:48;6.13;;;5.63;;
769;SDS011;368;48.698;9.116;2023-09-08T11:02:32;6.50;;;6.00;;
769;SDS011;368;48.698;9.116;2023-09-08T11:05:00;5.57;;;5.13;;
769;SDS011;368;48.698;9.116;2023-09-08T11:07:29;6.20;;;5.70;;
769;SDS011;368;48.698;9.116;2023-09-08T11:09:55;4.90;;;4.60;;
769;SDS011;368;48.698;9.116;2023-09-08T11:12:22;5.30;;;4.90;;
769;SDS011;368;48.698;9.116;2023-09-08T11:14:54;5.63;;;5.23;;
769;SDS011;368;48.698;9.116;2023-09-08T11:17:24;5.97;;;5.40;;
769;SDS011;368;48.698;9.116;2023-09-08T11:19:51;5.90;;;5.50;;
769;SDS011;368;48.698;9.116;2023-09-08T11:22:18;7.83;;;6.30;;
769;SDS011;368;48.698;9.116;2023-09-08T11:24:48;6.17;;;5.67;;
769;SDS011;368;48.698;9.116;2023-09-08T11:27:15;5.60;;;5.20;;
769;SDS011;368;48.698;9.116;2023-09-08T11:29:42;7.17;;;6.47;;
769;SDS011;368;48.698;9.116;2023-09-08T11:32:11;6.17;;;5.63;;
769;SDS011;368;48.698;9.116;2023-09-08T11:34:38;7.17;;;5.53;;
769;SDS011;368;48.698;9.116;2023-09-08T11:37:07;8.93;;;6.10;;
769;SDS011;368;48.698;9.116;2023-09-08T11:39:36;6.30;;;5.70;;
769;SDS011;368;48.698;9.116;2023-09-08T11:42:03;5.27;;;4.97;;
769;SDS011;368;48.698;9.116;2023-09-08T11:44:31;5.70;;;5.20;;
769;SDS011;368;48.698;9.116;2023-09-08T11:46:58;6.17;;;5.77;;
769;SDS011;368;48.698;9.116;2023-09-08T11:49:26;6.83;;;6.33;;
769;SDS011;368;48.698;9.116;2023-09-08T11:51:58;7.03;;;6.43;;
769;SDS011;368;48.698;9.116;2023-09-08T11:54:25;7.23;;;6.63;;
769;SDS011;368;48.698;9.116;2023-09-08T11:56:52;5.90;;;5.43;;
769;SDS011;368;48.698;9.116;2023-09-08T11:59:20;5.67;;;5.27;;
769;SDS011;368;48.698;9.116;2023-09-08T12:01:47;6.20;;;5.60;;
769;SDS011;368;48.698;9.116;2023-09-08T12:04:17;5.80;;;5.30;;
769;SDS011;368;48.698;9.116;2023-09-08T12:06:46;6.50;;;5.60;;
769;SDS011;368;48.698;9.116;2023-09-08T12:09:14;6.53;;;6.10;;
769;SDS011;368;48.698;9.116;2023-09-08T12:11:41;6.43;;;5.90;;
769;SDS011;368;48.698;9.116;2023-09-08T12:14:09;7.20;;;5.80;;
769;SDS011;368;48.698;9.116;2023-09-08T12:16:37;8.50;;;6.80;;
769;SDS011;368;48.698;9.116;2023-09-08T12:19:04;5.90;;;5.50;;
769;SDS011;368;48.698;9.116;2023-09-08T12:21:31;6.30;;;5.80;;
769;SDS011;368;48.698;9.116;2023-09-08T12:24:02;7.23;;;5.80;;
769;SDS011;368;48.698;9.116;2023-09-08T12:26:29;6.17;;;5.70;;
769;SDS011;368;48.698;9.116;2023-09-08T12:28:56;6.63;;;6.03;;
769;SDS011;368;48.698;9.116;2023-09-08T12:31:24;6.33;;;5.83;;
769;SDS011;368;48.698;9.116;2023-09-08T12:33:51;6.07;;;5.47;;
769;SDS011;368;48.698;9.116;2023-09-08T12:36:19;6.57;;;5.97;;
769;SDS011;368;48.698;9.116;2023-09-08T12:38:49;5.90;;;5.50;;
769;SDS011;368;48.698;9.116;2023-09-08T12:41:18;6.40;;;5.90;;
769;SDS011;368;48.698;9.116;2023-09-08T12:43:46;6.77;;;6.27;;
769;SDS011;368;48.698;9.116;2023-09-08T12:46:12;7.10;;;6.50;;
769;SDS011;368;48.698;9.116;2023-09-08T12:48:42;7.57;;;7.07;;
769;SDS011;368;48.698;9.116;2023-09-08T12:51:09;6.60;;;6.00;;
769;SDS011;368;48.698;9.116;2023-09-08T12:53:36;7.07;;;6.03;;
769;SDS011;368;48.698;9.116;2023-09-08T12:56:03;7.63;;;6.90;;
769;SDS011;368;48.698;9.116;2023-09-08T12:58:31;6.50;;;6.03;;
769;SDS011;368;48.698;9.116;2023-09-08T13:00:58;7.10;;;6.47;;
769;SDS011;368;48.698;9.116;2023-09-08T13:03:25;6.73;;;6.17;;
769;SDS011;368;48.698;9.116;2023-09-08T13:05:53;7.17;;;6.60;;
769;SDS011;368;48.698;9.116;2023-09-08T13:08:20;6.83;;;6.33;;
769;SDS011;368;48.698;9.116;2023-09-08T13:10:47;7.07;;;6.57;;
769;SDS011;368;48.698;9.116;2023-09-08T13:13:14;7.20;;;6.33;;
769;SDS011;368;48.698;9.116;2023-09-08T13:15:42;6.37;;;5.80;;
769;SDS011;368;48.698;9.116;2023-09-08T13:18:08;7.20;;;6.60;;
769;SDS011;368;48.698;9.116;2023-09-08T13:20:35;6.93;;;6.20;;
769;SDS011;368;48.698;9.116;2023-09-08T13:23:02;7.03;;;6.53;;
769;SDS011;368;48.698;9.116;2023-09-08T13:25:29;7.20;;;6.70;;
769;SDS011;368;48.698;9.116;2023-09-08T13:27:56;8.03;;;7.43;;
769;SDS011;368;48.698;9.116;2023-09-08T13:30:22;7.13;;;6.57;;
769;SDS011;368;48.698;9.116;2023-09-08T13:32:53;7.50;;;6.90;;
769;SDS011;368;48.698;9.116;2023-09-08T13:35:20;8.00;;;7.27;;
769;SDS011;368;48.698;9.116;2023-09-08T13:37:47;7.40;;;6.80;;
769;SDS011;368;48.698;9.116;2023-09-08T13:40:14;7.10;;;6.50;;
769;SDS011;368;48.698;9.116;2023-09-08T13:42:41;7.33;;;6.73;;
769;SDS011;368;48.698;9.116;2023-09-08T13:45:08;6.00;;;5.60;;
769;SDS011;368;48.698;9.116;2023-09-08T13:47:35;7.33;;;6.60;;
769;SDS011;368;48.698;9.116;2023-09-08T13:50:05;6.90;;;6.27;;
769;SDS011;368;48.698;9.116;2023-09-08T13:52:34;8.10;;;7.30;;
769;SDS011;368;48.698;9.116;2023-09-08T13:55:01;7.40;;;6.53;;
769;SDS011;368;48.698;9.116;2023-09-08T13:57:28;6.60;;;6.00;;
769;SDS011;368;48.698;9.116;2023-09-08T13:59:55;6.60;;;6.10;;
769;SDS011;368;48.698;9.116;2023-09-08T14:02:22;6.73;;;6.23;;
769;SDS011;368;48.698;9.116;2023-09-08T14:04:48;7.33;;;6.83;;
769;SDS011;368;48.698;9.116;2023-09-08T14:07:17;7.93;;;7.23;;
769;SDS011;368;48.698;9.116;2023-09-08T14:09:43;11.13;;;7.10;;
769;SDS011;368;48.698;9.116;2023-09-08T14:12:10;7.20;;;6.60;;
769;SDS011;368;48.698;9.116;2023-09-08T14:14:37;7.40;;;6.80;;
769;SDS011;368;48.698;9.116;2023-09-08T14:17:04;7.27;;;6.53;;
769;SDS011;368;48.698;9.116;2023-09-08T14:19:30;6.13;;;5.60;;
769;SDS011;368;48.698;9.116;2023-09-08T14:21:57;6.20;;;5.40;;
769;SDS011;368;48.698;9.116;2023-09-08T14:24:25;7.63;;;7.07;;
769;SDS011;368;48.698;9.116;2023-09-08T14:26:52;6.47;;;6.07;;
769;SDS011;368;48.698;9.116;2023-09-08T14:29:20;7.77;;;7.10;;
769;SDS011;368;48.698;9.116;2023-09-08T14:31:48;7.17;;;6.57;;
769;SDS011;368;48.698;9.116;2023-09-08T14:34:15;6.50;;;6.07;;
769;SDS011;368;48.698;9.116;2023-09-08T14:36:41;6.07;;;5.57;;
769;SDS011;368;48.698;9.116;2023-09-08T14:39:08;7.03;;;6.53;;
769;SDS011;368;48.698;9.116;2023-09-08T14:41:36;6.63;;;5.97;;
769;SDS011;368;48.698;9.116;2023-09-08T14:44:03;6.90;;;6.30;;
769;SDS011;368;48.698;9.116;2023-09-08T14:46:31;6.40;;;5.90;;
769;SDS011;368;48.698;9.116;2023-09-08T14:48:57;6.67;;;6.17;;
769;SDS011;368;48.698;9.116;2023-09-08T14:51:24;6.00;;;5.50;;
769;SDS011;368;48.698;9.116;2023-09-08T14:53:51;6.47;;;5.93;;
769;SDS011;368;48.698;9.116;2023-09-08T14:56:18;6.20;;;5.70;;
769;SDS011;368;48.698;9.116;2023-09-08T14:58:46;5.87;;;5.47;;
769;SDS011;368;48.698;9.116;2023-09-08T15:01:13;6.40;;;6.00;;
769;SDS011;368;48.698;9.116;2023-09-08T15:03:40;6.90;;;6.20;;
769;SDS011;368;48.698;9.116;2023-09-08T15:06:06;6.43;;;5.87;;
769;SDS011;368;48.698;9.116;2023-09-08T15:08:34;6.07;;;5.47;;
769;SDS011;368;48.698;9.116;2023-09-08T15:11:01;6.20;;;5.67;;
769;SDS011;368;48.698;9.116;2023-09-08T15:13:28;6.30;;;5.80;;
769;SDS011;368;48.698;9.116;2023-09-08T15:15:56;6.70;;;6.10;;
769;SDS011;368;48.698;9.116;2023-09-08T15:18:23;6.07;;;5.57;;
769;SDS011;368;48.698;9.116;2023-09-08T15:20:52;5.90;;;5.37;;
769;SDS011;368;48.698;9.116;2023-09-08T15:23:19;6.67;;;5.83;;
769;SDS011;368;48.698;9.116;2023-09-08T15:25:53;6.70;;;6.20;;
769;SDS011;368;48.698;9.116;2023-09-08T15:28:21;6.80;;;5.50;;
769;SDS011;368;48.698;9.116;2023-09-08T15:30:48;7.53;;;5.67;;
769;SDS011;368;48.698;9.116;2023-09-08T15:33:16;6.90;;;6.40;;
769;SDS011;368;48.698;9.116;2023-09-08T15:35:45;5.93;;;5.43;;
769;SDS011;368;48.698;9.116;2023-09-08T15:38:13;5.97;;;5.47;;
769;SDS011;368;48.698;9.116;2023-09-08T15:40:54;6.73;;;6.13;;
769;SDS011;368;48.698;9.116;2023-09-08T15:43:44;6.50;;;5.90;;
769;SDS011;368;48.698;9.116;2023-09-08T15:46:12;7.40;;;6.70;;
769;SDS011;368;48.698;9.116;2023-09-08T15:48:40;6.43;;;5.90;;
769;SDS011;368;48.698;9.116;2023-09-08T15:51:07;7.07;;;6.47;;
769;SDS011;368;48.698;9.116;2023-09-08T15:53:35;6.70;;;6.20;;